Time;durP1;ratioP1;P1;durP2;ratioP2;P2;SDS_P1;SDS_P2;PMS_P1;PMS_P2;Temp;Humidity;BMP_temperature;BMP_pressure;BME280_temperature;BME280_humidity;BME280_pressure;Samples;Min_cycle;Max_cycle;Signal;HPM_P1;HPM_P2
2023/07/01 00:00:57;;;;;;;7.22;4.38;;;17.80;99.90;17.90;99988.00;;;;4988829;28;108862;-60
2023/07/01 00:03:23;;;;;;;5.53;4.13;;;17.80;99.90;17.90;99987.00;;;;4988934;27;93127;-60
2023/07/01 00:05:49;;;;;;;6.75;4.30;;;17.80;99.90;17.90;99987.00;;;;4989983;27;101592;-60
2023/07/01 00:08:15;;;;;;;9.73;5.57;;;17.80;99.90;17.90;99972.00;;;;4987502;27;96498;-60
2023/07/01 00:10:41;;;;;;;9.25;5.28;;;17.80;99.90;17.90;99978.00;;;;4986865;27;108873;-60
2023/07/01 00:13:07;;;;;;;5.40;4.85;;;17.80;99.90;17.90;99984.00;;;;4983233;27;92915;-61
2023/07/01 00:15:34;;;;;;;7.13;5.35;;;17.80;99.90;17.90;99980.00;;;;4986846;27;92937;-61
2023/07/01 00:18:00;;;;;;;4.18;3.78;;;17.80;99.90;17.90;99995.00;;;;4987222;27;108907;-61
2023/07/01 00:20:26;;;;;;;7.18;4.43;;;17.80;99.90;17.90;99987.00;;;;4987060;27;93989;-60
2023/07/01 00:22:53;;;;;;;8.38;4.60;;;17.80;99.90;17.90;99982.00;;;;4986693;27;92984;-60
2023/07/01 00:25:19;;;;;;;10.88;4.20;;;17.80;99.90;17.90;99978.00;;;;4987473;27;92125;-62
2023/07/01 00:27:44;;;;;;;12.93;4.53;;;17.80;99.90;17.90;99978.00;;;;4988075;27;93175;-62
2023/07/01 00:30:11;;;;;;;10.27;4.93;;;17.80;99.90;17.90;99973.00;;;;4987825;27;123095;-61
2023/07/01 00:32:36;;;;;;;5.20;3.67;;;17.80;99.90;17.90;99974.00;;;;4984926;27;112862;-60
2023/07/01 00:35:02;;;;;;;6.60;4.78;;;17.80;99.90;17.90;99969.00;;;;4988813;27;92941;-61
2023/07/01 00:37:30;;;;;;;6.53;4.28;;;17.80;99.90;17.90;99967.00;;;;4990538;27;98141;-61
2023/07/01 00:39:56;;;;;;;5.32;3.45;;;17.80;99.90;17.90;99969.00;;;;4985264;27;93992;-61
2023/07/01 00:42:21;;;;;;;4.88;3.72;;;17.80;99.90;17.80;99964.00;;;;4990580;27;108747;-59
2023/07/01 00:44:47;;;;;;;5.65;3.47;;;17.70;99.90;17.80;99959.00;;;;4990304;27;109739;-62
2023/07/01 00:47:16;;;;;;;4.20;3.80;;;17.80;99.90;17.90;99967.00;;;;4992619;27;108169;-61
2023/07/01 00:49:42;;;;;;;6.25;4.45;;;17.80;99.90;17.80;99966.00;;;;4977143;28;107734;-59
2023/07/01 00:52:08;;;;;;;5.75;4.43;;;17.80;99.90;17.80;99966.00;;;;4989308;27;121810;-61
2023/07/01 00:54:35;;;;;;;7.10;4.55;;;17.80;99.90;17.80;99958.00;;;;4993766;27;110944;-60
2023/07/01 00:57:04;;;;;;;3.65;2.80;;;17.70;99.90;17.80;99958.00;;;;4992323;27;109001;-62
2023/07/01 00:59:32;;;;;;;5.85;3.58;;;17.70;99.90;17.80;99954.00;;;;4976162;28;93668;-62
2023/07/01 01:02:15;;;;;;;6.72;3.38;;;17.70;99.90;17.70;99953.00;;;;4992529;27;96214;-62
2023/07/01 01:04:48;;;;;;;7.30;3.85;;;17.60;99.90;17.70;99951.00;;;;4993325;27;101637;-61
2023/07/01 01:07:48;;;;;;;7.38;4.18;;;17.60;99.90;17.60;99940.00;;;;4962962;28;92949;-62
2023/07/01 01:10:21;;;;;;;5.00;3.85;;;17.60;99.90;17.60;99935.00;;;;4952761;28;93101;-59
2023/07/01 01:12:51;;;;;;;4.18;3.78;;;17.60;99.90;17.60;99924.00;;;;4951961;28;94148;-62
2023/07/01 01:15:16;;;;;;;5.80;4.30;;;17.50;99.90;17.60;99928.00;;;;4936929;28;92952;-61
2023/07/01 01:17:44;;;;;;;8.35;3.95;;;17.50;99.90;17.50;99922.00;;;;4934483;28;107030;-62
2023/07/01 01:20:20;;;;;;;4.95;3.97;;;17.50;99.90;17.50;99925.00;;;;4950984;28;123528;-61
2023/07/01 01:22:49;;;;;;;5.85;4.25;;;17.40;99.90;17.40;99928.00;;;;4934361;28;94111;-62
2023/07/01 01:25:54;;;;;;;6.55;4.47;;;17.40;99.90;17.40;99926.00;;;;4954136;28;92813;-62
2023/07/01 01:28:21;;;;;;;8.45;5.07;;;17.40;99.90;17.40;99917.00;;;;4950735;28;92798;-59
2023/07/01 01:30:47;;;;;;;9.25;5.13;;;17.30;99.90;17.30;99918.00;;;;4931932;28;94337;-62
2023/07/01 01:33:13;;;;;;;8.38;3.42;;;17.30;99.90;17.30;99925.00;;;;4950684;28;122193;-61
2023/07/01 01:35:39;;;;;;;6.10;4.07;;;17.20;99.90;17.30;99929.00;;;;4953048;28;109942;-61
2023/07/01 01:38:10;;;;;;;4.40;3.47;;;17.20;99.90;17.30;99932.00;;;;4950832;28;109344;-62
2023/07/01 01:41:16;;;;;;;6.53;2.88;;;17.20;99.90;17.20;99931.00;;;;4934143;28;93438;-61
2023/07/01 01:43:49;;;;;;;5.53;4.25;;;17.20;99.90;17.20;99924.00;;;;4885864;28;93039;-61
2023/07/01 01:46:21;;;;;;;4.25;3.05;;;17.20;99.90;17.20;99925.00;;;;4927170;28;93415;-61
2023/07/01 01:48:46;;;;;;;6.80;4.10;;;17.20;99.90;17.20;99923.00;;;;4930891;28;108321;-60
2023/07/01 01:51:14;;;;;;;3.58;3.28;;;17.20;99.90;17.20;99929.00;;;;4949299;28;121673;-62
2023/07/01 01:53:42;;;;;;;3.85;3.47;;;17.20;99.90;17.20;99925.00;;;;4928640;28;93314;-62
2023/07/01 01:56:10;;;;;;;8.65;4.65;;;17.20;99.90;17.20;99912.00;;;;4934755;28;102599;-61
2023/07/01 01:58:36;;;;;;;6.55;3.85;;;17.10;99.90;17.20;99913.00;;;;4930388;28;108788;-62
2023/07/01 02:01:02;;;;;;;6.55;3.88;;;17.10;99.90;17.20;99912.00;;;;4935387;28;122324;-61
2023/07/01 02:03:27;;;;;;;6.32;4.40;;;17.10;99.90;17.20;99912.00;;;;4951200;28;123303;-63
2023/07/01 02:05:53;;;;;;;5.07;3.92;;;17.10;99.90;17.20;99909.00;;;;4949782;28;111540;-62
2023/07/01 02:08:19;;;;;;;6.28;4.03;;;17.10;99.90;17.20;99905.00;;;;4970217;28;109293;-59
2023/07/01 02:10:44;;;;;;;4.78;4.32;;;17.20;99.90;17.30;99910.00;;;;4969692;28;93932;-62
2023/07/01 02:13:10;;;;;;;9.02;4.43;;;17.10;99.90;17.30;99911.00;;;;4966000;28;121919;-60
2023/07/01 02:15:36;;;;;;;6.40;3.67;;;17.20;99.90;17.30;99902.00;;;;4968874;28;93247;-61
2023/07/01 02:18:03;;;;;;;6.18;3.45;;;17.20;99.90;17.30;99891.00;;;;4968528;28;98342;-62
2023/07/01 02:20:30;;;;;;;4.60;3.47;;;17.50;99.90;17.30;99892.00;;;;4964316;28;94131;-61
2023/07/01 02:22:55;;;;;;;4.05;3.35;;;17.30;99.90;17.30;99893.00;;;;4970922;28;93000;-61
2023/07/01 02:25:21;;;;;;;7.53;4.00;;;17.20;99.90;17.30;99886.00;;;;4970568;28;110235;-61
2023/07/01 02:27:47;;;;;;;5.43;3.97;;;17.20;99.90;17.30;99888.00;;;;4968288;28;99055;-62
2023/07/01 02:30:13;;;;;;;5.07;3.25;;;17.20;99.90;17.30;99882.00;;;;4967490;28;122099;-62
2023/07/01 02:32:38;;;;;;;6.72;4.07;;;17.20;99.90;17.30;99895.00;;;;4968115;28;112130;-61
2023/07/01 02:35:05;;;;;;;4.45;3.92;;;17.20;99.90;17.30;99877.00;;;;4969824;28;93109;-60
2023/07/01 02:37:31;;;;;;;4.28;3.70;;;17.30;99.90;17.30;99880.00;;;;4968128;28;94179;-61
2023/07/01 02:39:56;;;;;;;5.57;3.85;;;17.20;99.90;17.30;99872.00;;;;4971043;28;122693;-61
2023/07/01 02:42:22;;;;;;;4.78;4.22;;;17.20;99.90;17.30;99875.00;;;;4971661;28;100883;-61
2023/07/01 02:44:48;;;;;;;5.15;3.60;;;17.20;99.90;17.30;99874.00;;;;4973717;28;93200;-61
2023/07/01 02:47:15;;;;;;;5.65;4.30;;;17.20;99.90;17.30;99883.00;;;;4968583;28;92961;-60
2023/07/01 02:49:40;;;;;;;6.60;4.13;;;17.20;99.90;17.30;99884.00;;;;4971838;28;93743;-60
2023/07/01 02:52:11;;;;;;;8.60;3.53;;;17.20;99.90;17.30;99878.00;;;;4970524;28;122409;-61
2023/07/01 02:54:41;;;;;;;6.63;4.32;;;17.20;99.90;17.30;99875.00;;;;4972709;28;92154;-62
2023/07/01 02:57:10;;;;;;;5.05;3.83;;;17.20;99.90;17.40;99877.00;;;;4973262;28;93027;-62
2023/07/01 02:59:37;;;;;;;4.22;3.85;;;17.30;99.90;17.40;99878.00;;;;4968233;28;93184;-61
2023/07/01 03:02:04;;;;;;;9.88;4.35;;;17.30;99.90;17.40;99872.00;;;;4967316;28;116623;-62
2023/07/01 03:04:32;;;;;;;5.82;4.43;;;17.30;99.90;17.40;99880.00;;;;4970366;28;92860;-61
2023/07/01 03:06:58;;;;;;;5.38;4.68;;;17.30;99.90;17.40;99887.00;;;;4957540;28;92965;-62
2023/07/01 03:09:24;;;;;;;4.43;3.80;;;17.30;99.90;17.40;99879.00;;;;4948237;28;93988;-60
2023/07/01 03:11:49;;;;;;;4.80;3.72;;;17.30;99.90;17.40;99873.00;;;;4946816;28;93129;-61
2023/07/01 03:14:15;;;;;;;6.93;4.00;;;17.30;99.90;17.40;99880.00;;;;4949610;28;92818;-61
2023/07/01 03:16:41;;;;;;;4.85;4.03;;;17.30;99.90;17.40;99875.00;;;;4946736;28;109166;-62
2023/07/01 03:19:08;;;;;;;6.32;3.10;;;17.30;99.90;17.40;99869.00;;;;4948590;28;93265;-63
2023/07/01 03:21:34;;;;;;;6.03;3.83;;;17.30;99.90;17.40;99866.00;;;;4947534;28;100413;-63
2023/07/01 03:24:00;;;;;;;5.25;4.25;;;17.40;99.90;17.40;99869.00;;;;4950387;28;92847;-62
2023/07/01 03:26:27;;;;;;;8.05;4.43;;;17.40;99.90;17.50;99870.00;;;;4952517;28;94026;-62
2023/07/01 03:28:53;;;;;;;5.82;4.47;;;17.40;99.90;17.50;99868.00;;;;4952075;28;94030;-63
2023/07/01 03:31:20;;;;;;;5.07;3.22;;;17.40;99.90;17.40;99863.00;;;;4945264;28;92948;-63
2023/07/01 03:33:46;;;;;;;6.07;3.45;;;17.40;99.90;17.50;99865.00;;;;4948402;28;101369;-62
2023/07/01 03:36:12;;;;;;;6.68;4.45;;;17.40;99.90;17.50;99865.00;;;;4950079;28;107178;-63
2023/07/01 03:38:37;;;;;;;4.15;3.22;;;17.40;99.90;17.50;99869.00;;;;4948137;28;122091;-62
2023/07/01 03:41:03;;;;;;;4.53;4.13;;;17.40;99.90;17.50;99865.00;;;;4945456;28;121342;-62
2023/07/01 03:43:29;;;;;;;4.47;3.92;;;17.40;99.90;17.50;99868.00;;;;4948361;28;110087;-61
2023/07/01 03:45:55;;;;;;;3.83;3.53;;;17.40;99.90;17.50;99869.00;;;;4949809;28;94361;-61
2023/07/01 03:48:21;;;;;;;3.60;3.30;;;17.40;99.90;17.50;99857.00;;;;4949310;28;112300;-61
2023/07/01 03:50:46;;;;;;;3.50;3.05;;;17.40;99.90;17.50;99864.00;;;;4947184;28;120994;-61
2023/07/01 03:53:12;;;;;;;4.82;3.40;;;17.40;99.90;17.50;99864.00;;;;4930765;28;101086;-61
2023/07/01 03:55:38;;;;;;;6.10;4.05;;;17.40;99.90;17.50;99866.00;;;;4943864;28;110125;-61
2023/07/01 03:58:04;;;;;;;4.60;3.13;;;17.40;99.90;17.50;99871.00;;;;4948839;28;123183;-62
2023/07/01 04:00:30;;;;;;;6.00;4.07;;;17.40;99.90;17.50;99866.00;;;;4944454;28;94547;-61
2023/07/01 04:03:05;;;;;;;4.50;3.63;;;17.40;99.90;17.50;99866.00;;;;4951205;28;93208;-62
2023/07/01 04:05:35;;;;;;;4.90;3.22;;;17.40;99.90;17.50;99868.00;;;;4945948;28;93144;-61
2023/07/01 04:08:01;;;;;;;7.70;4.40;;;17.40;99.90;17.50;99869.00;;;;4968550;28;92935;-61
2023/07/01 04:10:28;;;;;;;4.28;3.88;;;17.40;99.90;17.50;99867.00;;;;4967094;28;93108;-62
2023/07/01 04:12:55;;;;;;;5.40;4.15;;;17.40;99.90;17.50;99861.00;;;;4965048;28;110368;-62
2023/07/01 04:15:21;;;;;;;4.88;3.20;;;17.40;99.90;17.50;99858.00;;;;4968847;28;93813;-62
2023/07/01 04:17:51;;;;;;;6.50;4.63;;;17.40;99.90;17.50;99863.00;;;;4973776;28;109048;-62
2023/07/01 04:20:19;;;;;;;5.78;3.60;;;17.40;99.90;17.50;99857.00;;;;4975751;28;93278;-63
2023/07/01 04:22:46;;;;;;;4.47;2.95;;;17.40;99.90;17.50;99859.00;;;;4973457;28;93417;-62
2023/07/01 04:25:12;;;;;;;3.80;3.38;;;17.40;99.90;17.50;99863.00;;;;4978875;28;92871;-63
2023/07/01 04:27:38;;;;;;;3.63;2.80;;;17.40;99.90;17.50;99862.00;;;;4978071;28;94269;-63
2023/07/01 04:30:08;;;;;;;4.88;3.92;;;17.40;99.90;17.60;99859.00;;;;4976261;28;93268;-63
2023/07/01 04:32:34;;;;;;;6.03;4.22;;;17.40;99.90;17.60;99867.00;;;;4975403;28;92308;-63
2023/07/01 04:35:01;;;;;;;4.95;3.97;;;17.50;99.90;17.60;99859.00;;;;4976656;28;93950;-63
2023/07/01 04:37:26;;;;;;;5.82;4.45;;;17.50;99.90;17.60;99870.00;;;;4974826;28;108652;-63
2023/07/01 04:39:52;;;;;;;6.03;4.25;;;17.50;99.90;17.60;99858.00;;;;4972897;28;93973;-63
2023/07/01 04:42:18;;;;;;;5.00;3.60;;;17.50;99.90;17.60;99872.00;;;;4976530;28;92869;-64
2023/07/01 04:44:44;;;;;;;5.75;3.72;;;17.50;99.90;17.60;99863.00;;;;4972832;28;107866;-64
2023/07/01 04:47:09;;;;;;;4.18;3.67;;;17.50;99.90;17.60;99864.00;;;;4975697;28;121220;-64
2023/07/01 04:49:35;;;;;;;6.18;4.47;;;17.50;99.90;17.60;99864.00;;;;4972165;28;121305;-65
2023/07/01 04:52:01;;;;;;;9.02;4.28;;;17.50;99.90;17.70;99864.00;;;;4973060;28;109894;-65
2023/07/01 04:54:26;;;;;;;7.75;4.22;;;17.50;99.90;17.70;99856.00;;;;4973325;28;110485;-65
2023/07/01 04:56:52;;;;;;;9.00;4.00;;;17.60;99.90;17.80;99861.00;;;;4972076;28;93287;-66
2023/07/01 04:59:17;;;;;;;4.32;3.67;;;17.60;99.90;17.80;99859.00;;;;4970476;28;121689;-66
2023/07/01 05:01:43;;;;;;;4.40;3.78;;;17.70;99.90;17.90;99856.00;;;;4973805;28;109356;-66
2023/07/01 05:04:09;;;;;;;4.50;4.00;;;17.70;99.90;17.90;99863.00;;;;4970819;28;109347;-66
2023/07/01 05:06:35;;;;;;;4.68;3.53;;;17.80;99.90;17.90;99868.00;;;;4967781;28;122828;-66
2023/07/01 05:09:02;;;;;;;4.75;3.17;;;17.80;99.90;18.00;99869.00;;;;4968286;28;94481;-66
2023/07/01 05:11:28;;;;;;;7.18;3.55;;;17.80;99.90;18.00;99867.00;;;;4970506;28;93325;-66
2023/07/01 05:13:54;;;;;;;8.07;4.63;;;17.90;99.90;18.00;99864.00;;;;4970581;28;93994;-65
2023/07/01 05:16:19;;;;;;;4.72;3.65;;;17.90;99.90;18.10;99867.00;;;;4969529;28;94044;-65
2023/07/01 05:18:46;;;;;;;4.10;3.47;;;17.90;99.90;18.10;99862.00;;;;4967022;28;92999;-66
2023/07/01 05:21:12;;;;;;;6.28;4.40;;;18.00;99.90;18.10;99867.00;;;;4970878;28;109454;-65
2023/07/01 05:23:37;;;;;;;7.65;4.50;;;18.00;99.90;18.10;99867.00;;;;4968479;28;108950;-65
2023/07/01 05:26:03;;;;;;;7.03;3.88;;;18.00;99.90;18.20;99869.00;;;;4969577;28;123113;-65
2023/07/01 05:28:29;;;;;;;4.82;3.95;;;18.10;99.90;18.20;99871.00;;;;4964891;28;119775;-64
2023/07/01 05:30:54;;;;;;;8.32;3.65;;;18.10;99.90;18.20;99866.00;;;;4968518;28;93040;-64
2023/07/01 05:33:20;;;;;;;5.78;3.45;;;18.10;99.90;18.30;99867.00;;;;4963661;28;107879;-64
2023/07/01 05:35:46;;;;;;;7.88;4.05;;;18.20;99.90;18.40;99873.00;;;;4962046;28;123144;-64
2023/07/01 05:38:13;;;;;;;7.47;3.80;;;18.20;99.90;18.50;99871.00;;;;4965098;28;123134;-65
2023/07/01 05:40:39;;;;;;;4.53;3.65;;;18.30;99.90;18.50;99878.00;;;;4963075;28;109027;-64
2023/07/01 05:43:05;;;;;;;5.00;3.60;;;18.40;99.90;18.60;99877.00;;;;4964584;28;108078;-64
2023/07/01 05:45:31;;;;;;;5.80;3.70;;;18.40;99.90;18.60;99868.00;;;;4965831;28;119458;-65
2023/07/01 05:47:57;;;;;;;4.35;3.95;;;18.50;99.90;18.50;99873.00;;;;4963356;28;110689;-64
2023/07/01 05:50:23;;;;;;;10.07;3.30;;;18.40;99.90;18.40;99881.00;;;;4966035;28;110759;-64
2023/07/01 05:52:49;;;;;;;4.20;2.63;;;18.40;99.90;18.40;99885.00;;;;4966127;28;108741;-63
2023/07/01 05:55:15;;;;;;;6.07;2.78;;;18.30;99.90;18.30;99871.00;;;;4965151;28;121974;-63
2023/07/01 05:57:41;;;;;;;4.13;3.08;;;18.30;99.90;18.40;99879.00;;;;4962808;28;122222;-64
2023/07/01 06:00:09;;;;;;;8.35;3.78;;;18.30;99.90;18.50;99884.00;;;;4965519;28;99008;-64
2023/07/01 06:02:35;;;;;;;5.18;3.33;;;18.30;99.90;18.60;99881.00;;;;4967989;28;92878;-64
2023/07/01 06:05:00;;;;;;;4.35;3.22;;;18.50;99.90;18.70;99877.00;;;;4965359;28;105800;-64
2023/07/01 06:07:26;;;;;;;3.83;2.67;;;18.60;99.90;18.80;99872.00;;;;4970405;28;92862;-65
2023/07/01 06:09:52;;;;;;;5.75;3.80;;;18.70;99.90;19.00;99881.00;;;;4969215;28;100771;-63
2023/07/01 06:12:17;;;;;;;8.48;3.47;;;18.80;99.90;19.10;99869.00;;;;4962581;28;92972;-64
2023/07/01 06:14:43;;;;;;;5.97;2.92;;;18.90;99.90;19.30;99870.00;;;;4963976;28;93982;-66
2023/07/01 06:17:09;;;;;;;5.72;3.25;;;19.10;99.90;19.40;99873.00;;;;4964262;28;94050;-65
2023/07/01 06:19:35;;;;;;;4.25;2.80;;;19.20;99.90;19.50;99874.00;;;;4963508;28;111141;-66
2023/07/01 06:22:00;;;;;;;4.05;2.90;;;19.30;99.90;19.60;99869.00;;;;4965920;28;108690;-66
2023/07/01 06:24:26;;;;;;;10.75;3.30;;;19.40;99.90;19.70;99862.00;;;;4962816;28;112475;-66
2023/07/01 06:26:52;;;;;;;2.95;2.65;;;19.50;99.90;19.80;99870.00;;;;4966439;28;121886;-67
2023/07/01 06:29:17;;;;;;;8.23;2.45;;;19.70;99.90;19.90;99860.00;;;;4968129;28;110574;-66
2023/07/01 06:31:43;;;;;;;10.52;2.22;;;19.80;99.90;20.00;99864.00;;;;4969342;28;108457;-66
2023/07/01 06:34:15;;;;;;;4.25;1.65;;;19.90;99.90;20.10;99879.00;;;;4967840;28;108304;-66
2023/07/01 06:36:41;;;;;;;2.80;2.53;;;20.20;99.90;20.30;99866.00;;;;4966582;28;93739;-66
2023/07/01 06:39:07;;;;;;;3.15;2.47;;;20.10;99.90;20.40;99860.00;;;;4968693;28;92945;-67
2023/07/01 06:41:32;;;;;;;2.42;1.95;;;20.20;99.90;20.50;99864.00;;;;4950885;28;106703;-66
2023/07/01 06:43:59;;;;;;;3.05;2.03;;;20.30;99.90;20.50;99858.00;;;;4966363;28;115015;-66
2023/07/01 06:46:26;;;;;;;2.75;1.40;;;20.40;99.90;20.50;99861.00;;;;4965166;28;93824;-66
2023/07/01 06:48:52;;;;;;;2.20;2.00;;;20.40;99.90;20.60;99867.00;;;;4964636;28;96309;-66
2023/07/01 06:51:17;;;;;;;3.10;2.10;;;20.50;99.90;20.70;99858.00;;;;4963296;28;109242;-67
2023/07/01 06:53:43;;;;;;;4.63;2.40;;;20.60;99.90;20.90;99861.00;;;;4967728;28;93630;-65
2023/07/01 06:56:09;;;;;;;2.38;1.65;;;20.70;99.90;21.00;99864.00;;;;4965495;28;121500;-65
2023/07/01 06:58:35;;;;;;;2.55;1.75;;;20.80;99.90;21.10;99863.00;;;;4967703;28;92116;-66
2023/07/01 07:01:01;;;;;;;3.88;1.38;;;20.90;99.90;21.20;99864.00;;;;4967543;28;92750;-66
2023/07/01 07:03:26;;;;;;;2.33;1.52;;;21.10;99.90;21.40;99863.00;;;;4965075;28;123400;-66
2023/07/01 07:05:54;;;;;;;1.50;1.40;;;21.20;99.90;21.50;99866.00;;;;4964606;28;121374;-66
2023/07/01 07:08:23;;;;;;;2.75;1.23;;;21.40;99.90;21.70;99861.00;;;;4966920;28;93004;-66
2023/07/01 07:10:49;;;;;;;2.75;1.98;;;21.50;99.90;21.70;99856.00;;;;4964555;28;99954;-66
2023/07/01 07:13:16;;;;;;;2.08;1.88;;;21.60;99.90;21.90;99855.00;;;;4966011;28;121641;-67
2023/07/01 07:15:42;;;;;;;2.13;1.35;;;21.70;99.90;22.00;99844.00;;;;4965833;28;92961;-67
2023/07/01 07:18:09;;;;;;;4.63;1.55;;;22.60;99.90;22.00;99846.00;;;;4949884;28;93169;-66
2023/07/01 07:20:39;;;;;;;1.50;1.05;;;21.90;99.90;22.00;99838.00;;;;4966571;28;93098;-66
2023/07/01 07:23:08;;;;;;;2.33;1.25;;;22.00;99.90;22.20;99841.00;;;;4962124;28;122547;-66
2023/07/01 07:25:34;;;;;;;1.08;1.00;;;22.10;99.90;22.40;99838.00;;;;4965236;28;93026;-68
2023/07/01 07:28:01;;;;;;;7.32;1.20;;;22.20;99.90;22.60;99841.00;;;;4966399;28;93185;-66
2023/07/01 07:30:27;;;;;;;1.13;1.00;;;22.40;99.90;22.70;99837.00;;;;4965043;28;94264;-67
2023/07/01 07:32:52;;;;;;;3.67;1.33;;;22.50;99.90;22.70;99840.00;;;;4966085;28;123636;-67
2023/07/01 07:35:18;;;;;;;3.92;1.23;;;22.60;99.90;22.70;99833.00;;;;4964527;28;120810;-67
2023/07/01 07:37:45;;;;;;;4.38;2.00;;;22.60;99.90;22.70;99834.00;;;;4967230;28;93029;-67
2023/07/01 07:40:11;;;;;;;1.45;0.77;;;22.60;99.90;22.80;99821.00;;;;4963557;28;100776;-67
2023/07/01 07:42:37;;;;;;;1.02;0.93;;;22.70;99.90;23.00;99827.00;;;;4965918;28;120553;-66
2023/07/01 07:45:06;;;;;;;3.67;0.90;;;22.80;99.90;23.20;99827.00;;;;4957803;28;95705;-66
2023/07/01 07:47:31;;;;;;;1.65;1.02;;;22.90;99.50;23.20;99821.00;;;;4957667;28;102925;-66
2023/07/01 07:49:57;;;;;;;1.30;1.10;;;23.00;99.30;23.30;99819.00;;;;4962931;28;108198;-67
2023/07/01 07:52:23;;;;;;;1.10;1.10;;;23.00;98.40;23.50;99813.00;;;;4956142;28;119269;-66
2023/07/01 07:54:49;;;;;;;0.77;0.70;;;23.30;98.00;23.60;99821.00;;;;4964026;28;108117;-66
2023/07/01 07:57:14;;;;;;;2.60;0.80;;;23.40;94.90;23.60;99818.00;;;;4954244;28;108484;-67
2023/07/01 07:59:41;;;;;;;0.80;0.80;;;23.40;94.00;23.70;99820.00;;;;4964494;28;93188;-67
2023/07/01 08:02:12;;;;;;;0.82;0.75;;;23.50;93.60;23.80;99821.00;;;;4965694;28;92880;-66
2023/07/01 08:04:41;;;;;;;1.45;1.23;;;23.60;92.10;23.80;99809.00;;;;4963757;28;93214;-66
2023/07/01 08:07:07;;;;;;;6.40;1.25;;;23.70;88.30;23.70;99804.00;;;;4958828;28;109486;-67
2023/07/01 08:09:34;;;;;;;4.03;1.10;;;23.60;84.00;23.60;99811.00;;;;4945034;28;93407;-67
2023/07/01 08:12:00;;;;;;;5.65;1.05;;;23.50;83.20;23.50;99821.00;;;;4947622;28;93580;-66
2023/07/01 08:14:26;;;;;;;1.00;0.93;;;23.50;81.00;23.50;99809.00;;;;4945864;28;93519;-65
2023/07/01 08:16:54;;;;;;;2.03;1.00;;;23.40;79.70;23.60;99803.00;;;;4946078;28;93208;-65
2023/07/01 08:19:20;;;;;;;1.02;0.95;;;23.40;77.40;23.60;99808.00;;;;4946531;28;93873;-65
2023/07/01 08:21:46;;;;;;;0.80;0.63;;;23.40;77.90;23.70;99811.00;;;;4947712;28;121973;-65
2023/07/01 08:24:12;;;;;;;1.08;0.57;;;23.50;76.60;23.70;99808.00;;;;4949495;28;107531;-65
2023/07/01 08:26:37;;;;;;;1.02;0.93;;;23.50;75.00;23.70;99801.00;;;;4965093;28;105497;-65
2023/07/01 08:29:07;;;;;;;1.27;1.00;;;23.60;75.40;23.80;99801.00;;;;4964949;28;108719;-65
2023/07/01 08:31:33;;;;;;;3.83;0.70;;;23.60;75.00;23.80;99807.00;;;;4964886;28;101918;-65
2023/07/01 08:33:59;;;;;;;0.73;0.73;;;23.70;74.10;23.90;99796.00;;;;4964398;28;93777;-65
2023/07/01 08:36:25;;;;;;;0.65;0.50;;;23.70;73.40;23.90;99797.00;;;;4960815;28;110591;-65
2023/07/01 08:38:51;;;;;;;1.70;1.05;;;23.80;69.80;23.90;99800.00;;;;4964652;28;92882;-65
2023/07/01 08:41:18;;;;;;;2.50;0.90;;;23.70;69.80;23.90;99795.00;;;;4963554;28;110302;-66
2023/07/01 08:43:50;;;;;;;0.65;0.40;;;23.70;70.50;23.90;99793.00;;;;4967207;28;93703;-66
2023/07/01 08:46:18;;;;;;;1.30;0.93;;;23.80;70.30;24.00;99793.00;;;;4921398;28;93065;-65
2023/07/01 08:48:46;;;;;;;1.40;0.82;;;23.80;71.10;24.10;99790.00;;;;4944694;28;93051;-65
2023/07/01 08:51:25;;;;;;;0.60;0.57;;;24.00;70.70;24.30;99797.00;;;;4945576;28;93689;-65
2023/07/01 08:53:52;;;;;;;0.90;0.57;;;24.00;71.50;24.40;99801.00;;;;4944586;28;111706;-65
2023/07/01 08:56:21;;;;;;;1.83;0.93;;;24.20;71.80;24.60;99794.00;;;;4942220;28;92926;-65
2023/07/01 08:58:48;;;;;;;1.30;0.80;;;24.30;69.80;24.70;99800.00;;;;4947584;28;92759;-64
2023/07/01 09:01:18;;;;;;;0.93;0.52;;;24.40;69.50;24.90;99797.00;;;;4944735;28;107461;-65
2023/07/01 09:03:47;;;;;;;1.92;0.60;;;24.60;70.80;24.90;99796.00;;;;4945154;28;93863;-65
2023/07/01 09:06:13;;;;;;;1.00;0.70;;;24.70;64.80;24.80;99792.00;;;;4947645;28;93323;-65
2023/07/01 09:08:39;;;;;;;0.57;0.57;;;24.60;63.90;24.70;99773.00;;;;4956158;28;94221;-66
2023/07/01 09:11:25;;;;;;;0.47;0.25;;;24.60;64.80;24.70;99787.00;;;;4966465;28;123239;-65
2023/07/01 09:13:55;;;;;;;0.35;0.35;;;24.60;65.80;24.80;99785.00;;;;4966109;28;123121;-66
2023/07/01 09:16:33;;;;;;;1.15;0.73;;;24.60;65.80;25.10;99780.00;;;;4966039;28;92982;-66
2023/07/01 09:19:16;;;;;;;0.75;0.57;;;24.80;66.30;25.40;99773.00;;;;4964982;28;93305;-66
2023/07/01 09:21:43;;;;;;;0.57;0.40;;;25.00;66.40;25.70;99772.00;;;;4969350;28;93160;-69
2023/07/01 09:24:10;;;;;;;0.82;0.70;;;25.30;67.20;25.90;99780.00;;;;4966664;28;94085;-69
2023/07/01 09:26:36;;;;;;;3.13;0.95;;;25.60;67.50;26.10;99776.00;;;;4970068;28;92103;-70
2023/07/01 09:29:15;;;;;;;1.00;0.60;;;25.80;60.50;26.10;99767.00;;;;4951073;28;108758;-69
2023/07/01 09:31:49;;;;;;;0.80;0.75;;;25.80;59.70;25.90;99774.00;;;;4966210;28;93678;-69
2023/07/01 09:34:16;;;;;;;0.82;0.65;;;25.70;60.10;25.80;99762.00;;;;4967175;28;107460;-68
2023/07/01 09:36:42;;;;;;;3.65;0.70;;;25.60;59.80;25.80;99770.00;;;;4969008;28;93056;-68
2023/07/01 09:39:08;;;;;;;1.17;0.70;;;25.60;59.40;25.80;99763.00;;;;4966090;28;93032;-69
2023/07/01 09:41:34;;;;;;;1.15;0.82;;;25.60;58.70;25.70;99758.00;;;;4965749;28;121841;-69
2023/07/01 09:44:00;;;;;;;0.57;0.57;;;25.50;58.30;25.80;99757.00;;;;4963717;28;93723;-69
2023/07/01 09:46:44;;;;;;;2.05;1.08;;;25.60;58.30;26.00;99759.00;;;;4964264;28;92886;-70
2023/07/01 09:49:10;;;;;;;1.15;0.80;;;25.60;58.60;26.10;99751.00;;;;4954244;28;92950;-69
2023/07/01 09:51:48;;;;;;;1.42;0.80;;;25.90;58.50;26.30;99755.00;;;;4968474;28;121085;-69
2023/07/01 09:54:30;;;;;;;0.40;0.40;;;26.00;58.40;26.50;99748.00;;;;4965972;28;92958;-69
2023/07/01 09:56:58;;;;;;;1.65;1.13;;;26.20;58.70;26.70;99744.00;;;;4967285;28;92969;-68
2023/07/01 09:59:25;;;;;;;4.20;1.17;;;26.30;57.10;26.70;99737.00;;;;4968452;28;96961;-70
2023/07/01 10:01:55;;;;;;;1.05;0.90;;;26.40;56.50;26.90;99732.00;;;;4968524;28;94169;-69
2023/07/01 10:04:25;;;;;;;1.83;0.93;;;26.50;57.10;27.10;99726.00;;;;4969722;28;93282;-69
2023/07/01 10:06:54;;;;;;;0.80;0.63;;;26.70;55.70;27.10;99723.00;;;;4952753;28;92931;-69
2023/07/01 10:09:23;;;;;;;0.73;0.73;;;26.80;52.30;27.00;99722.00;;;;4963110;28;93192;-69
2023/07/01 10:11:51;;;;;;;1.95;0.95;;;26.70;52.20;26.80;99737.00;;;;4966096;28;92926;-69
2023/07/01 10:14:21;;;;;;;1.58;0.88;;;26.60;51.70;26.60;99724.00;;;;4951347;28;115590;-70
2023/07/01 10:16:47;;;;;;;0.50;0.50;;;26.40;51.50;26.50;99727.00;;;;4951232;28;92269;-68
2023/07/01 10:19:29;;;;;;;1.15;0.75;;;26.20;52.30;26.60;99717.00;;;;4965367;28;109115;-69
2023/07/01 10:22:26;;;;;;;2.78;0.77;;;26.20;52.70;26.70;99724.00;;;;4964032;28;93132;-68
2023/07/01 10:25:03;;;;;;;1.00;0.68;;;26.30;51.80;26.80;99718.00;;;;4965418;28;93787;-69
2023/07/01 10:27:41;;;;;;;1.00;0.63;;;26.40;51.90;27.00;99714.00;;;;4966399;28;93068;-68
2023/07/01 10:30:13;;;;;;;3.85;1.10;;;26.60;51.90;27.20;99723.00;;;;4966078;28;93215;-68
2023/07/01 10:32:40;;;;;;;2.17;1.05;;;26.80;52.40;27.50;99716.00;;;;4952065;28;107550;-68
2023/07/01 10:35:05;;;;;;;1.52;0.90;;;26.90;51.80;27.80;99711.00;;;;4964408;28;93015;-70
2023/07/01 10:37:37;;;;;;;0.98;0.60;;;27.20;52.50;28.30;99704.00;;;;4966831;28;93658;-69
2023/07/01 10:40:28;;;;;;;0.95;0.95;;;27.60;53.20;28.70;99708.00;;;;4961404;28;93181;-68
2023/07/01 10:43:29;;;;;;;1.40;0.80;;;28.00;51.30;28.80;99704.00;;;;4964886;28;94477;-68
2023/07/01 10:46:19;;;;;;;1.52;0.90;;;28.20;50.40;28.80;99701.00;;;;4966412;28;93674;-69
2023/07/01 10:49:05;;;;;;;0.45;0.45;;;28.30;48.90;28.90;99692.00;;;;4969456;28;93759;-68
2023/07/01 10:52:04;;;;;;;1.05;0.73;;;28.40;49.70;28.90;99695.00;;;;4965016;28;93809;-69
2023/07/01 10:54:35;;;;;;;1.38;0.82;;;28.50;47.90;28.50;99695.00;;;;4914390;28;94314;-68